TimeCDT,TemperatureF,Dew PointF,Humidity,Sea Level PressureIn,VisibilityMPH,Wind Direction,Wind SpeedMPH,Gust SpeedMPH,PrecipitationIn,Events,Conditions,WindDirDegrees,DateUTC
12:08 AM,42.8,42.8,100,30.13,4.0,NNW,5.8,-,N/A,Rain,Light Rain,330,2013-05-05 05:08:00
12:18 AM,42.8,42.8,100,30.13,7.0,NNW,6.9,-,N/A,Rain,Light Rain,340,2013-05-05 05:18:00
12:48 AM,42.8,42.8,100,30.13,6.0,NNW,5.8,-,N/A,,Overcast,340,2013-05-05 05:48:00
12:58 AM,43.0,42.8,99,30.16,8.0,North,6.9,-,0.02,,Overcast,350,2013-05-05 05:58:00
1:03 AM,42.8,42.8,100,30.13,8.0,NNW,5.8,-,N/A,Rain,Light Rain,340,2013-05-05 06:03:00
1:38 AM,42.8,42.8,100,30.12,5.0,NW,8.1,-,N/A,,Overcast,320,2013-05-05 06:38:00
1:43 AM,42.8,42.8,100,30.12,4.0,NW,6.9,-,N/A,,Overcast,320,2013-05-05 06:43:00
1:53 AM,42.8,42.8,100,30.12,5.0,NNW,6.9,-,N/A,Rain,Light Rain,340,2013-05-05 06:53:00
1:58 AM,42.8,42.6,99,30.15,7.0,North,5.8,-,0.01,Rain,Light Rain,350,2013-05-05 06:58:00
2:24 AM,42.8,42.8,100,30.12,10.0,NNW,4.6,-,N/A,,Overcast,340,2013-05-05 07:24:00
2:35 AM,42.8,42.8,100,30.11,9.0,NNW,8.1,-,N/A,,Overcast,330,2013-05-05 07:35:00
2:58 AM,42.6,42.4,99,30.14,8.0,North,8.1,-,0.00,,Overcast,350,2013-05-05 07:58:00
3:58 AM,42.6,42.4,99,30.14,10.0,NNW,9.2,-,N/A,,Overcast,330,2013-05-05 08:58:00
4:38 AM,42.8,42.8,100,30.12,10.0,NNW,6.9,-,N/A,,Overcast,340,2013-05-05 09:38:00
4:58 AM,42.8,42.6,99,30.15,10.0,NNW,8.1,-,N/A,,Overcast,330,2013-05-05 09:58:00
5:13 AM,42.8,42.8,100,30.12,10.0,NNW,8.1,-,N/A,,Overcast,340,2013-05-05 10:13:00
5:26 AM,42.8,42.8,100,30.12,9.0,North,6.9,-,N/A,,Overcast,350,2013-05-05 10:26:00
5:58 AM,42.4,42.3,99,30.15,8.0,NNW,8.1,-,0.00,,Light Drizzle,330,2013-05-05 10:58:00
5:59 AM,42.8,42.8,100,30.12,8.0,NNW,6.9,-,N/A,,Overcast,340,2013-05-05 10:59:00
6:19 AM,42.8,42.8,100,30.12,7.0,NNW,8.1,-,N/A,,Overcast,340,2013-05-05 11:19:00
6:58 AM,42.4,42.3,99,30.16,8.0,NNW,8.1,-,0.00,,Overcast,340,2013-05-05 11:58:00
7:58 AM,43.0,42.8,99,30.17,6.0,NNW,8.1,-,N/A,,Overcast,330,2013-05-05 12:58:00
8:58 AM,43.2,43.0,99,30.19,5.0,NNW,8.1,-,N/A,,Overcast,330,2013-05-05 13:58:00
9:58 AM,44.2,44.1,99,30.19,6.0,North,10.4,-,N/A,,Overcast,350,2013-05-05 14:58:00
10:03 AM,44.6,44.6,100,30.16,6.0,NNW,10.4,-,N/A,,Overcast,340,2013-05-05 15:03:00
10:58 AM,44.8,44.6,99,30.20,8.0,NNW,5.8,-,N/A,,Overcast,340,2013-05-05 15:58:00
11:58 AM,45.7,45.3,99,30.20,8.0,NNW,8.1,-,N/A,,Overcast,330,2013-05-05 16:58:00
12:53 PM,48.2,46.4,93,30.15,8.0,NNW,10.4,-,N/A,,Overcast,340,2013-05-05 17:53:00
12:58 PM,48.7,46.4,92,30.18,8.0,NNW,8.1,-,N/A,,Overcast,330,2013-05-05 17:58:00
1:58 PM,50.2,46.6,87,30.18,10.0,North,8.1,-,N/A,,Overcast,10,2013-05-05 18:58:00
2:58 PM,51.3,48.2,89,30.17,10.0,North,10.4,-,N/A,,Overcast,350,2013-05-05 19:58:00
3:58 PM,52.5,48.6,86,30.14,10.0,NNW,6.9,-,N/A,,Overcast,330,2013-05-05 20:58:00
4:33 PM,53.6,48.2,82,30.12,10.0,NNE,8.1,-,N/A,,Overcast,20,2013-05-05 21:33:00
4:58 PM,54.1,48.9,82,30.14,10.0,North,6.9,-,N/A,,Overcast,10,2013-05-05 21:58:00
5:58 PM,54.0,48.9,83,30.14,9.0,North,6.9,-,N/A,,Overcast,360,2013-05-05 22:58:00
6:58 PM,54.0,49.1,84,30.14,8.0,North,8.1,-,N/A,,Mostly Cloudy,360,2013-05-05 23:58:00
7:58 PM,53.6,48.7,84,30.14,10.0,North,8.1,-,N/A,,Mostly Cloudy,10,2013-05-06 00:58:00
8:58 PM,52.5,48.9,88,30.14,10.0,North,5.8,-,N/A,,Overcast,360,2013-05-06 01:58:00
9:53 PM,51.8,50.0,94,30.12,10.0,North,4.6,-,N/A,,Overcast,350,2013-05-06 02:53:00
9:58 PM,52.5,49.3,89,30.16,10.0,NNW,3.5,-,N/A,,Overcast,340,2013-05-06 02:58:00
10:28 PM,51.8,50.0,94,30.13,10.0,NNW,5.8,-,N/A,,Overcast,340,2013-05-06 03:28:00
10:58 PM,52.3,49.3,89,30.16,10.0,NNW,6.9,-,N/A,,Overcast,330,2013-05-06 03:58:00
11:18 PM,51.8,50.0,94,30.13,10.0,NNW,5.8,-,N/A,,Overcast,340,2013-05-06 04:18:00
11:58 PM,52.0,49.6,92,30.15,10.0,North,3.5,-,N/A,,Overcast,350,2013-05-06 04:58:00